sensor_id;sensor_type;location;lat;lon;timestamp;pressure;altitude;pressure_sealevel;temperature;humidity
53960;BME280;39866;48.638;-2.020;2023-02-28T00:00:19;102714.47;;;9.15;51.75
53960;BME280;39866;48.638;-2.020;2023-02-28T00:02:45;102712.59;;;9.04;51.50
53960;BME280;39866;48.638;-2.020;2023-02-28T00:05:14;102705.59;;;9.15;51.40
53960;BME280;39866;48.638;-2.020;2023-02-28T00:07:40;102716.38;;;9.32;50.94
53960;BME280;39866;48.638;-2.020;2023-02-28T00:10:12;102711.00;;;9.24;51.31
53960;BME280;39866;48.638;-2.020;2023-02-28T00:12:38;102716.38;;;9.32;51.64
53960;BME280;39866;48.638;-2.020;2023-02-28T00:15:10;102707.56;;;9.39;51.03
53960;BME280;39866;48.638;-2.020;2023-02-28T00:17:36;102710.19;;;9.36;50.24
53960;BME280;39866;48.638;-2.020;2023-02-28T00:20:02;102714.66;;;9.40;50.75
53960;BME280;39866;48.638;-2.020;2023-02-28T00:22:29;102719.06;;;9.35;50.49
53960;BME280;39866;48.638;-2.020;2023-02-28T00:24:55;102716.34;;;9.27;50.93
53960;BME280;39866;48.638;-2.020;2023-02-28T00:27:20;102714.44;;;9.11;51.67
53960;BME280;39866;48.638;-2.020;2023-02-28T00:29:48;102717.19;;;9.23;51.54
53960;BME280;39866;48.638;-2.020;2023-02-28T00:32:14;102722.56;;;9.32;50.98
53960;BME280;39866;48.638;-2.020;2023-02-28T00:34:39;102727.81;;;9.26;51.04
53960;BME280;39866;48.638;-2.020;2023-02-28T00:37:09;102718.13;;;9.33;50.80
53960;BME280;39866;48.638;-2.020;2023-02-28T00:39:36;102722.56;;;9.34;50.61
53960;BME280;39866;48.638;-2.020;2023-02-28T00:42:02;102717.16;;;9.20;50.84
53960;BME280;39866;48.638;-2.020;2023-02-28T00:44:28;102724.22;;;9.18;50.96
53960;BME280;39866;48.638;-2.020;2023-02-28T00:46:54;102726.94;;;9.26;50.47
53960;BME280;39866;48.638;-2.020;2023-02-28T00:49:20;102725.22;;;9.31;50.47
53960;BME280;39866;48.638;-2.020;2023-02-28T00:51:46;102719.84;;;9.23;50.23
53960;BME280;39866;48.638;-2.020;2023-02-28T00:54:12;102725.16;;;9.26;50.26
53960;BME280;39866;48.638;-2.020;2023-02-28T00:56:37;102710.13;;;9.28;50.03
53960;BME280;39866;48.638;-2.020;2023-02-28T00:59:03;102711.09;;;9.35;49.93
53960;BME280;39866;48.638;-2.020;2023-02-28T01:01:28;102711.94;;;9.32;50.06
53960;BME280;39866;48.638;-2.020;2023-02-28T01:03:53;102709.31;;;9.35;49.88
53960;BME280;39866;48.638;-2.020;2023-02-28T01:06:19;102705.75;;;9.36;49.80
53960;BME280;39866;48.638;-2.020;2023-02-28T01:08:44;102710.91;;;9.15;49.70
53960;BME280;39866;48.638;-2.020;2023-02-28T01:11:11;102715.28;;;9.07;49.80
53960;BME280;39866;48.638;-2.020;2023-02-28T01:13:36;102707.22;;;9.01;50.26
53960;BME280;39866;48.638;-2.020;2023-02-28T01:16:02;102711.78;;;9.11;50.18
53960;BME280;39866;48.638;-2.020;2023-02-28T01:18:27;102713.47;;;9.06;49.61
53960;BME280;39866;48.638;-2.020;2023-02-28T01:20:54;102710.03;;;9.14;49.79
53960;BME280;39866;48.638;-2.020;2023-02-28T01:23:20;102713.50;;;9.09;50.02
53960;BME280;39866;48.638;-2.020;2023-02-28T01:25:46;102710.03;;;9.16;49.42
53960;BME280;39866;48.638;-2.020;2023-02-28T01:28:11;102711.78;;;9.14;49.21
53960;BME280;39866;48.638;-2.020;2023-02-28T01:30:37;102713.47;;;9.04;49.10
53960;BME280;39866;48.638;-2.020;2023-02-28T01:33:02;102718.72;;;8.97;49.35
53960;BME280;39866;48.638;-2.020;2023-02-28T01:35:27;102725.81;;;9.01;49.56
53960;BME280;39866;48.638;-2.020;2023-02-28T01:37:53;102726.81;;;9.10;49.21
53960;BME280;39866;48.638;-2.020;2023-02-28T01:40:18;102729.53;;;9.18;49.14
53960;BME280;39866;48.638;-2.020;2023-02-28T01:42:44;102734.84;;;9.18;48.94
53960;BME280;39866;48.638;-2.020;2023-02-28T01:45:31;102732.75;;;8.83;48.57
53960;BME280;39866;48.638;-2.020;2023-02-28T01:48:07;102729.41;;;9.03;48.74
53960;BME280;39866;48.638;-2.020;2023-02-28T01:50:37;102732.91;;;8.99;48.32
53960;BME280;39866;48.638;-2.020;2023-02-28T01:53:07;102733.63;;;8.84;48.37
53960;BME280;39866;48.638;-2.020;2023-02-28T01:55:35;102732.75;;;8.83;48.70
53960;BME280;39866;48.638;-2.020;2023-02-28T01:58:03;102736.38;;;8.91;48.33
53960;BME280;39866;48.638;-2.020;2023-02-28T02:00:30;102736.47;;;8.99;47.72
53960;BME280;39866;48.638;-2.020;2023-02-28T02:03:05;102721.38;;;8.95;47.68
53960;BME280;39866;48.638;-2.020;2023-02-28T02:05:31;102740.84;;;8.97;47.23
53960;BME280;39866;48.638;-2.020;2023-02-28T02:08:02;102738.88;;;8.76;47.32
53960;BME280;39866;48.638;-2.020;2023-02-28T02:18:50;102739.91;;;8.90;46.80
53960;BME280;39866;48.638;-2.020;2023-02-28T02:35:21;102734.59;;;8.90;47.43
53960;BME280;39866;48.638;-2.020;2023-02-28T02:38:13;102738.91;;;8.78;47.14
53960;BME280;39866;48.638;-2.020;2023-02-28T02:41:02;102732.63;;;8.73;46.73
53960;BME280;39866;48.638;-2.020;2023-02-28T02:43:34;102721.16;;;8.77;47.02
53960;BME280;39866;48.638;-2.020;2023-02-28T02:46:08;102719.56;;;8.91;46.85
53960;BME280;39866;48.638;-2.020;2023-02-28T02:48:38;102728.31;;;8.82;46.36
53960;BME280;39866;48.638;-2.020;2023-02-28T02:51:07;102723.72;;;8.66;46.18
53960;BME280;39866;48.638;-2.020;2023-02-28T02:53:42;102728.16;;;8.65;46.36
53960;BME280;39866;48.638;-2.020;2023-02-28T02:56:10;102720.97;;;8.60;46.69
53960;BME280;39866;48.638;-2.020;2023-02-28T02:58:40;102729.81;;;8.57;46.01
53960;BME280;39866;48.638;-2.020;2023-02-28T03:01:10;102727.97;;;8.52;46.56
53960;BME280;39866;48.638;-2.020;2023-02-28T03:03:37;102716.41;;;8.47;46.17
53960;BME280;39866;48.638;-2.020;2023-02-28T03:06:03;102721.53;;;8.34;46.69
53960;BME280;39866;48.638;-2.020;2023-02-28T03:08:35;102720.66;;;8.34;46.83
53960;BME280;39866;48.638;-2.020;2023-02-28T03:11:04;102730.63;;;8.52;46.52
53960;BME280;39866;48.638;-2.020;2023-02-28T03:21:38;102714.75;;;8.55;46.61
53960;BME280;39866;48.638;-2.020;2023-02-28T03:24:32;102719.06;;;8.45;46.48
53960;BME280;39866;48.638;-2.020;2023-02-28T03:27:07;102713.66;;;8.39;46.58
53960;BME280;39866;48.638;-2.020;2023-02-28T03:29:47;102715.59;;;8.52;46.59
53960;BME280;39866;48.638;-2.020;2023-02-28T03:32:22;102716.41;;;8.47;46.84
53960;BME280;39866;48.638;-2.020;2023-02-28T03:34:59;102720.84;;;8.48;46.84
53960;BME280;39866;48.638;-2.020;2023-02-28T03:37:29;102719.72;;;8.30;47.09
53960;BME280;39866;48.638;-2.020;2023-02-28T03:40:00;102714.47;;;8.36;47.33
53960;BME280;39866;48.638;-2.020;2023-02-28T03:42:29;102731.50;;;8.49;47.49
53960;BME280;39866;48.638;-2.020;2023-02-28T03:44:59;102731.50;;;8.49;47.53
53960;BME280;39866;48.638;-2.020;2023-02-28T03:49:59;102722.75;;;8.58;47.66
53960;BME280;39866;48.638;-2.020;2023-02-28T03:52:32;102727.22;;;8.62;47.32
53960;BME280;39866;48.638;-2.020;2023-02-28T03:55:03;102727.19;;;8.60;47.48
53960;BME280;39866;48.638;-2.020;2023-02-28T04:00:43;102726.19;;;8.51;47.81
53960;BME280;39866;48.638;-2.020;2023-02-28T04:03:10;102723.59;;;8.57;47.65
53960;BME280;39866;48.638;-2.020;2023-02-28T04:05:55;102721.97;;;8.68;47.70
53960;BME280;39866;48.638;-2.020;2023-02-28T04:08:22;102727.13;;;8.56;47.65
53960;BME280;39866;48.638;-2.020;2023-02-28T04:10:56;102733.47;;;8.65;47.63
53960;BME280;39866;48.638;-2.020;2023-02-28T04:13:23;102719.97;;;8.46;47.32
53960;BME280;39866;48.638;-2.020;2023-02-28T04:15:48;102723.28;;;8.32;47.52
53960;BME280;39866;48.638;-2.020;2023-02-28T04:18:14;102733.00;;;8.30;47.50
53960;BME280;39866;48.638;-2.020;2023-02-28T04:20:39;102732.25;;;8.37;47.11
53960;BME280;39866;48.638;-2.020;2023-02-28T04:23:04;102740.22;;;8.37;47.20
53960;BME280;39866;48.638;-2.020;2023-02-28T04:25:30;102742.97;;;8.48;46.85
53960;BME280;39866;48.638;-2.020;2023-02-28T04:27:55;102740.31;;;8.47;46.81
53960;BME280;39866;48.638;-2.020;2023-02-28T04:30:20;102739.47;;;8.51;46.83
53960;BME280;39866;48.638;-2.020;2023-02-28T04:32:46;102748.34;;;8.53;47.02
53960;BME280;39866;48.638;-2.020;2023-02-28T04:35:11;102743.91;;;8.52;46.80
53960;BME280;39866;48.638;-2.020;2023-02-28T04:37:36;102745.28;;;8.22;46.91
53960;BME280;39866;48.638;-2.020;2023-02-28T04:40:03;102757.72;;;8.26;47.00
53960;BME280;39866;48.638;-2.020;2023-02-28T04:42:28;102743.59;;;8.29;46.89
53960;BME280;39866;48.638;-2.020;2023-02-28T04:45:01;102749.81;;;8.32;47.08
53960;BME280;39866;48.638;-2.020;2023-02-28T04:47:26;102752.66;;;8.44;47.39
53960;BME280;39866;48.638;-2.020;2023-02-28T04:49:51;102757.13;;;8.46;47.09
53960;BME280;39866;48.638;-2.020;2023-02-28T04:52:16;102748.22;;;8.42;47.33
53960;BME280;39866;48.638;-2.020;2023-02-28T04:54:42;102745.44;;;8.33;47.63
53960;BME280;39866;48.638;-2.020;2023-02-28T04:57:07;102736.47;;;8.25;47.98
53960;BME280;39866;48.638;-2.020;2023-02-28T04:59:33;102743.59;;;8.29;47.83
53960;BME280;39866;48.638;-2.020;2023-02-28T05:01:58;102746.16;;;8.21;47.89
53960;BME280;39866;48.638;-2.020;2023-02-28T05:04:23;102756.84;;;8.27;47.72
53960;BME280;39866;48.638;-2.020;2023-02-28T05:06:49;102744.50;;;8.32;47.18
53960;BME280;39866;48.638;-2.020;2023-02-28T05:09:14;102751.72;;;8.39;47.34
53960;BME280;39866;48.638;-2.020;2023-02-28T05:11:41;102744.34;;;8.20;47.42
53960;BME280;39866;48.638;-2.020;2023-02-28T05:14:11;102750.50;;;8.16;47.66
53960;BME280;39866;48.638;-2.020;2023-02-28T05:16:37;102753.97;;;8.12;47.30
53960;BME280;39866;48.638;-2.020;2023-02-28T05:19:03;102751.41;;;8.16;47.24
53960;BME280;39866;48.638;-2.020;2023-02-28T05:21:31;102754.09;;;8.19;47.53
53960;BME280;39866;48.638;-2.020;2023-02-28T05:24:09;102758.50;;;8.17;47.71
53960;BME280;39866;48.638;-2.020;2023-02-28T05:26:37;102755.91;;;8.24;47.35
53960;BME280;39866;48.638;-2.020;2023-02-28T05:29:03;102761.75;;;8.00;47.14
53960;BME280;39866;48.638;-2.020;2023-02-28T05:31:29;102760.25;;;8.17;47.21
53960;BME280;39866;48.638;-2.020;2023-02-28T05:33:54;102765.69;;;8.26;47.36
53960;BME280;39866;48.638;-2.020;2023-02-28T05:36:20;102765.78;;;8.35;47.25
53960;BME280;39866;48.638;-2.020;2023-02-28T05:38:50;102760.56;;;8.38;47.11
53960;BME280;39866;48.638;-2.020;2023-02-28T05:41:16;102767.75;;;8.46;47.15
53960;BME280;39866;48.638;-2.020;2023-02-28T05:43:42;102765.88;;;8.37;47.08
53960;BME280;39866;48.638;-2.020;2023-02-28T05:46:09;102773.00;;;8.42;47.23
53960;BME280;39866;48.638;-2.020;2023-02-28T05:48:35;102774.53;;;8.28;46.71
53960;BME280;39866;48.638;-2.020;2023-02-28T05:51:01;102778.91;;;8.23;46.57
53960;BME280;39866;48.638;-2.020;2023-02-28T05:53:28;102782.59;;;8.36;47.47
53960;BME280;39866;48.638;-2.020;2023-02-28T05:55:53;102781.91;;;8.46;46.93
53960;BME280;39866;48.638;-2.020;2023-02-28T05:58:19;102788.94;;;8.42;46.80
53960;BME280;39866;48.638;-2.020;2023-02-28T06:00:44;102763.03;;;8.28;46.99
53960;BME280;39866;48.638;-2.020;2023-02-28T06:03:10;102788.97;;;8.46;46.77
53960;BME280;39866;48.638;-2.020;2023-02-28T06:05:35;102794.09;;;8.36;46.63
53960;BME280;39866;48.638;-2.020;2023-02-28T06:08:01;102792.47;;;8.41;46.88
53960;BME280;39866;48.638;-2.020;2023-02-28T06:10:26;102797.72;;;8.38;46.83
53960;BME280;39866;48.638;-2.020;2023-02-28T06:12:51;102805.50;;;8.26;46.99
53960;BME280;39866;48.638;-2.020;2023-02-28T06:15:16;102795.59;;;8.13;46.78
53960;BME280;39866;48.638;-2.020;2023-02-28T06:17:43;102796.59;;;8.23;47.50
53960;BME280;39866;48.638;-2.020;2023-02-28T06:20:10;102799.50;;;8.39;47.18
53960;BME280;39866;48.638;-2.020;2023-02-28T06:22:38;102802.94;;;8.35;47.24
53960;BME280;39866;48.638;-2.020;2023-02-28T06:25:05;102803.72;;;8.27;46.99
53960;BME280;39866;48.638;-2.020;2023-02-28T06:27:31;102796.66;;;8.27;47.19
53960;BME280;39866;48.638;-2.020;2023-02-28T06:29:57;102792.06;;;8.15;47.29
53960;BME280;39866;48.638;-2.020;2023-02-28T06:32:22;102798.41;;;8.27;47.59
53960;BME280;39866;48.638;-2.020;2023-02-28T06:34:47;102792.34;;;8.35;47.10
53960;BME280;39866;48.638;-2.020;2023-02-28T06:37:14;102793.41;;;8.47;47.13
53960;BME280;39866;48.638;-2.020;2023-02-28T06:39:39;102799.41;;;8.35;46.89
53960;BME280;39866;48.638;-2.020;2023-02-28T06:42:04;102792.41;;;8.38;47.27
53960;BME280;39866;48.638;-2.020;2023-02-28T06:44:30;102794.72;;;8.15;46.46
53960;BME280;39866;48.638;-2.020;2023-02-28T06:47:04;102802.00;;;8.29;47.13
53960;BME280;39866;48.638;-2.020;2023-02-28T06:49:30;102803.03;;;8.38;46.65
53960;BME280;39866;48.638;-2.020;2023-02-28T06:51:56;102808.34;;;8.38;46.40
53960;BME280;39866;48.638;-2.020;2023-02-28T06:54:21;102805.84;;;8.49;46.58
53960;BME280;39866;48.638;-2.020;2023-02-28T06:56:47;102815.47;;;8.42;46.86
53960;BME280;39866;48.638;-2.020;2023-02-28T06:59:12;102813.88;;;8.57;47.17
53960;BME280;39866;48.638;-2.020;2023-02-28T07:01:38;102817.19;;;8.40;46.55
53960;BME280;39866;48.638;-2.020;2023-02-28T07:04:05;102819.94;;;8.45;46.38
53960;BME280;39866;48.638;-2.020;2023-02-28T07:06:30;102820.66;;;8.35;46.79
53960;BME280;39866;48.638;-2.020;2023-02-28T07:08:56;102816.88;;;8.19;46.36
53960;BME280;39866;48.638;-2.020;2023-02-28T07:11:23;102826.56;;;8.15;46.48
53960;BME280;39866;48.638;-2.020;2023-02-28T07:13:51;102825.44;;;8.00;46.74
53960;BME280;39866;48.638;-2.020;2023-02-28T07:16:17;102830.97;;;8.13;47.21
53960;BME280;39866;48.638;-2.020;2023-02-28T07:18:42;102829.53;;;7.79;47.79
53960;BME280;39866;48.638;-2.020;2023-02-28T07:21:09;102832.75;;;8.16;47.65
53960;BME280;39866;48.638;-2.020;2023-02-28T07:23:35;102836.41;;;8.24;47.57
53960;BME280;39866;48.638;-2.020;2023-02-28T07:26:03;102842.53;;;8.18;47.48
53960;BME280;39866;48.638;-2.020;2023-02-28T07:28:29;102842.34;;;8.05;47.46
53960;BME280;39866;48.638;-2.020;2023-02-28T07:30:54;102845.00;;;8.08;47.40
53960;BME280;39866;48.638;-2.020;2023-02-28T07:33:19;102842.72;;;8.32;47.66
53960;BME280;39866;48.638;-2.020;2023-02-28T07:35:45;102844.44;;;8.27;47.07
53960;BME280;39866;48.638;-2.020;2023-02-28T07:38:10;102848.00;;;8.29;47.50
53960;BME280;39866;48.638;-2.020;2023-02-28T07:40:36;102853.53;;;8.44;47.28
53960;BME280;39866;48.638;-2.020;2023-02-28T07:43:03;102851.00;;;8.51;46.90
53960;BME280;39866;48.638;-2.020;2023-02-28T07:45:29;102859.16;;;8.67;47.23
53960;BME280;39866;48.638;-2.020;2023-02-28T07:47:54;102861.13;;;8.82;47.05
53960;BME280;39866;48.638;-2.020;2023-02-28T07:50:20;102870.69;;;8.68;47.02
53960;BME280;39866;48.638;-2.020;2023-02-28T07:52:46;102868.81;;;8.61;47.05
53960;BME280;39866;48.638;-2.020;2023-02-28T07:55:11;102876.09;;;8.76;46.95
53960;BME280;39866;48.638;-2.020;2023-02-28T07:57:39;102871.56;;;8.65;47.13
53960;BME280;39866;48.638;-2.020;2023-02-28T08:00:06;102868.81;;;8.59;46.87
53960;BME280;39866;48.638;-2.020;2023-02-28T08:02:32;102873.94;;;8.46;47.09
53960;BME280;39866;48.638;-2.020;2023-02-28T08:04:57;102877.66;;;8.58;47.29
53960;BME280;39866;48.638;-2.020;2023-02-28T08:07:23;102874.28;;;8.70;47.01
53960;BME280;39866;48.638;-2.020;2023-02-28T08:09:48;102874.94;;;8.57;46.89
53960;BME280;39866;48.638;-2.020;2023-02-28T08:12:14;102880.25;;;8.54;46.75
53960;BME280;39866;48.638;-2.020;2023-02-28T08:14:39;102874.09;;;8.58;47.23
53960;BME280;39866;48.638;-2.020;2023-02-28T08:17:05;102877.75;;;8.69;47.06
53960;BME280;39866;48.638;-2.020;2023-02-28T08:19:31;102883.00;;;8.63;46.78
53960;BME280;39866;48.638;-2.020;2023-02-28T08:21:57;102877.47;;;8.46;46.70
53960;BME280;39866;48.638;-2.020;2023-02-28T08:24:22;102862.53;;;8.54;46.54
53960;BME280;39866;48.638;-2.020;2023-02-28T08:26:48;102873.72;;;8.35;46.18
53960;BME280;39866;48.638;-2.020;2023-02-28T08:29:13;102877.44;;;8.44;45.88
53960;BME280;39866;48.638;-2.020;2023-02-28T08:31:39;102860.84;;;8.59;45.81
53960;BME280;39866;48.638;-2.020;2023-02-28T08:34:08;102873.13;;;8.51;45.94
53960;BME280;39866;48.638;-2.020;2023-02-28T08:36:35;102872.28;;;8.54;45.89
53960;BME280;39866;48.638;-2.020;2023-02-28T08:39:01;102868.78;;;8.58;46.16
53960;BME280;39866;48.638;-2.020;2023-02-28T08:41:27;102879.41;;;8.58;46.32
53960;BME280;39866;48.638;-2.020;2023-02-28T08:43:52;102883.78;;;8.54;46.29
53960;BME280;39866;48.638;-2.020;2023-02-28T08:46:18;102881.19;;;8.60;46.21
53960;BME280;39866;48.638;-2.020;2023-02-28T08:48:44;102888.44;;;8.71;46.16
53960;BME280;39866;48.638;-2.020;2023-02-28T08:51:16;102880.19;;;8.49;46.06
53960;BME280;39866;48.638;-2.020;2023-02-28T08:53:44;102882.34;;;8.79;46.07
53960;BME280;39866;48.638;-2.020;2023-02-28T08:56:13;102891.97;;;8.70;46.04
53960;BME280;39866;48.638;-2.020;2023-02-28T08:58:39;102886.63;;;8.68;45.90
53960;BME280;39866;48.638;-2.020;2023-02-28T09:01:13;102886.81;;;8.83;46.23
53960;BME280;39866;48.638;-2.020;2023-02-28T09:03:40;102893.03;;;8.82;46.16
53960;BME280;39866;48.638;-2.020;2023-02-28T09:06:07;102890.19;;;8.70;46.54
53960;BME280;39866;48.638;-2.020;2023-02-28T09:08:32;102889.28;;;8.68;46.69
53960;BME280;39866;48.638;-2.020;2023-02-28T09:10:58;102878.69;;;8.71;46.66
53960;BME280;39866;48.638;-2.020;2023-02-28T09:13:25;102896.19;;;8.54;46.40
53960;BME280;39866;48.638;-2.020;2023-02-28T09:15:51;102903.03;;;8.38;46.71
53960;BME280;39866;48.638;-2.020;2023-02-28T09:18:17;102890.88;;;8.57;46.64
53960;BME280;39866;48.638;-2.020;2023-02-28T09:20:43;102900.88;;;8.75;46.86
53960;BME280;39866;48.638;-2.020;2023-02-28T09:23:09;102900.84;;;8.72;47.08
53960;BME280;39866;48.638;-2.020;2023-02-28T09:25:36;102903.31;;;8.59;47.25
53960;BME280;39866;48.638;-2.020;2023-02-28T09:28:02;102912.56;;;8.89;46.58
53960;BME280;39866;48.638;-2.020;2023-02-28T09:30:28;102901.81;;;8.78;46.68
53960;BME280;39866;48.638;-2.020;2023-02-28T09:32:54;102906.19;;;8.76;47.15
53960;BME280;39866;48.638;-2.020;2023-02-28T09:35:23;102909.84;;;8.84;47.05
53960;BME280;39866;48.638;-2.020;2023-02-28T09:37:50;102907.75;;;8.59;47.37
53960;BME280;39866;48.638;-2.020;2023-02-28T09:40:17;102897.06;;;8.54;47.35
53960;BME280;39866;48.638;-2.020;2023-02-28T09:42:47;102895.34;;;8.59;47.46
53960;BME280;39866;48.638;-2.020;2023-02-28T09:45:32;102900.78;;;8.68;47.44
53960;BME280;39866;48.638;-2.020;2023-02-28T09:48:14;102907.06;;;8.16;48.09
53960;BME280;39866;48.638;-2.020;2023-02-28T09:50:50;102918.13;;;8.43;48.46
53960;BME280;39866;48.638;-2.020;2023-02-28T09:53:28;102910.44;;;8.62;47.42
53960;BME280;39866;48.638;-2.020;2023-02-28T09:56:03;102911.34;;;8.64;47.65
53960;BME280;39866;48.638;-2.020;2023-02-28T09:58:44;102917.78;;;8.81;47.31
53960;BME280;39866;48.638;-2.020;2023-02-28T10:06:49;102913.75;;;8.47;47.02
53960;BME280;39866;48.638;-2.020;2023-02-28T10:09:26;102912.66;;;8.33;46.85
53960;BME280;39866;48.638;-2.020;2023-02-28T10:11:59;102905.75;;;8.42;47.18
53960;BME280;39866;48.638;-2.020;2023-02-28T10:14:28;102904.72;;;8.36;46.49
53960;BME280;39866;48.638;-2.020;2023-02-28T10:17:07;102914.78;;;8.57;46.89
53960;BME280;39866;48.638;-2.020;2023-02-28T10:19:44;102904.16;;;8.57;46.04
53960;BME280;39866;48.638;-2.020;2023-02-28T10:22:34;102907.78;;;8.62;45.80
53960;BME280;39866;48.638;-2.020;2023-02-28T10:25:04;102911.50;;;8.76;45.45
53960;BME280;39866;48.638;-2.020;2023-02-28T10:27:31;102911.72;;;8.91;45.87
53960;BME280;39866;48.638;-2.020;2023-02-28T10:29:59;102908.84;;;8.76;45.37
53960;BME280;39866;48.638;-2.020;2023-02-28T10:32:34;102902.50;;;8.65;45.88
53960;BME280;39866;48.638;-2.020;2023-02-28T10:37:41;102897.56;;;8.91;46.25
53960;BME280;39866;48.638;-2.020;2023-02-28T10:40:31;102892.28;;;8.96;46.41
53960;BME280;39866;48.638;-2.020;2023-02-28T10:45:23;102901.41;;;9.17;46.27
53960;BME280;39866;48.638;-2.020;2023-02-28T10:47:58;102897.84;;;9.17;46.13
53960;BME280;39866;48.638;-2.020;2023-02-28T10:53:10;102891.28;;;8.86;46.26
53960;BME280;39866;48.638;-2.020;2023-02-28T10:55:39;102891.91;;;8.66;46.98
53960;BME280;39866;48.638;-2.020;2023-02-28T10:58:20;102900.28;;;8.97;46.72
53960;BME280;39866;48.638;-2.020;2023-02-28T11:00:46;102886.28;;;9.13;47.25
53960;BME280;39866;48.638;-2.020;2023-02-28T11:03:32;102876.81;;;8.62;48.61
53960;BME280;39866;48.638;-2.020;2023-02-28T11:06:08;102882.75;;;8.44;49.05
53960;BME280;39866;48.638;-2.020;2023-02-28T11:08:45;102887.75;;;8.26;48.83
53960;BME280;39866;48.638;-2.020;2023-02-28T11:11:11;102884.06;;;8.74;47.87
53960;BME280;39866;48.638;-2.020;2023-02-28T11:13:36;102888.84;;;9.04;47.16
53960;BME280;39866;48.638;-2.020;2023-02-28T11:16:11;102885.44;;;9.17;47.50
53960;BME280;39866;48.638;-2.020;2023-02-28T11:18:39;102881.63;;;8.92;47.53
53960;BME280;39866;48.638;-2.020;2023-02-28T11:21:06;102874.28;;;8.73;48.13
53960;BME280;39866;48.638;-2.020;2023-02-28T11:23:34;102879.69;;;8.79;48.09
53960;BME280;39866;48.638;-2.020;2023-02-28T11:26:02;102874.31;;;8.76;47.96
53960;BME280;39866;48.638;-2.020;2023-02-28T11:28:35;102878.03;;;8.87;47.94
53960;BME280;39866;48.638;-2.020;2023-02-28T11:33:44;102868.13;;;8.76;48.63
53960;BME280;39866;48.638;-2.020;2023-02-28T11:36:30;102860.22;;;8.80;46.45
53960;BME280;39866;48.638;-2.020;2023-02-28T11:38:59;102875.94;;;8.62;46.46
53960;BME280;39866;48.638;-2.020;2023-02-28T11:45:04;102856.88;;;8.95;47.29
53960;BME280;39866;48.638;-2.020;2023-02-28T11:47:50;102860.16;;;8.74;48.13
53960;BME280;39866;48.638;-2.020;2023-02-28T12:04:46;102844.63;;;8.39;50.90
53960;BME280;39866;48.638;-2.020;2023-02-28T12:13:40;102835.47;;;8.83;49.05
53960;BME280;39866;48.638;-2.020;2023-02-28T12:16:07;102835.88;;;9.21;48.32
53960;BME280;39866;48.638;-2.020;2023-02-28T12:21:29;102825.91;;;9.02;49.25
53960;BME280;39866;48.638;-2.020;2023-02-28T12:24:18;102814.34;;;8.97;49.69
53960;BME280;39866;48.638;-2.020;2023-02-28T12:26:49;102821.66;;;9.14;49.32
53960;BME280;39866;48.638;-2.020;2023-02-28T12:29:56;102821.75;;;9.25;49.51
53960;BME280;39866;48.638;-2.020;2023-02-28T12:32:43;102811.69;;;8.97;51.21
53960;BME280;39866;48.638;-2.020;2023-02-28T12:37:49;102797.78;;;9.21;51.43
53960;BME280;39866;48.638;-2.020;2023-02-28T12:40:20;102793.44;;;9.30;52.76
53960;BME280;39866;48.638;-2.020;2023-02-28T12:42:50;102784.41;;;9.11;51.91
53960;BME280;39866;48.638;-2.020;2023-02-28T12:45:46;102785.25;;;9.09;52.08
53960;BME280;39866;48.638;-2.020;2023-02-28T12:48:58;102778.25;;;9.15;52.45
53960;BME280;39866;48.638;-2.020;2023-02-28T12:51:25;102774.88;;;9.35;52.86
53960;BME280;39866;48.638;-2.020;2023-02-28T12:54:37;102763.09;;;9.07;53.11
53960;BME280;39866;48.638;-2.020;2023-02-28T13:00:04;102754.09;;;8.91;53.13
53960;BME280;39866;48.638;-2.020;2023-02-28T13:10:53;102751.78;;;9.28;53.43
53960;BME280;39866;48.638;-2.020;2023-02-28T13:13:30;102740.97;;;9.08;52.63
53960;BME280;39866;48.638;-2.020;2023-02-28T13:16:09;102738.53;;;9.31;50.67
53960;BME280;39866;48.638;-2.020;2023-02-28T13:18:41;102730.50;;;9.28;51.32
53960;BME280;39866;48.638;-2.020;2023-02-28T13:21:10;102718.44;;;9.73;50.80
53960;BME280;39866;48.638;-2.020;2023-02-28T13:29:36;102704.78;;;9.25;51.96
53960;BME280;39866;48.638;-2.020;2023-02-28T13:34:31;102702.13;;;9.25;52.57
53960;BME280;39866;48.638;-2.020;2023-02-28T13:37:36;102703.22;;;9.53;51.58
53960;BME280;39866;48.638;-2.020;2023-02-28T13:47:43;102702.28;;;9.47;52.42
53960;BME280;39866;48.638;-2.020;2023-02-28T13:53:23;102702.25;;;9.42;52.44
53960;BME280;39866;48.638;-2.020;2023-02-28T13:56:10;102690.41;;;9.00;53.21
53960;BME280;39866;48.638;-2.020;2023-02-28T14:06:54;102687.84;;;9.12;55.13
53960;BME280;39866;48.638;-2.020;2023-02-28T14:09:36;102691.25;;;8.98;56.19
53960;BME280;39866;48.638;-2.020;2023-02-28T14:18:51;102669.84;;;8.79;58.69
53960;BME280;39866;48.638;-2.020;2023-02-28T14:21:26;102678.81;;;8.93;59.70
53960;BME280;39866;48.638;-2.020;2023-02-28T14:37:43;102663.53;;;8.68;63.76
53960;BME280;39866;48.638;-2.020;2023-02-28T14:40:16;102663.59;;;8.74;65.22
53960;BME280;39866;48.638;-2.020;2023-02-28T14:42:48;102660.03;;;8.72;64.22
53960;BME280;39866;48.638;-2.020;2023-02-28T14:45:18;102655.66;;;8.76;63.83
53960;BME280;39866;48.638;-2.020;2023-02-28T14:47:44;102660.91;;;8.73;64.06
53960;BME280;39866;48.638;-2.020;2023-02-28T14:50:26;102653.97;;;8.87;64.03
53960;BME280;39866;48.638;-2.020;2023-02-28T14:52:53;102658.53;;;9.00;63.56
53960;BME280;39866;48.638;-2.020;2023-02-28T14:55:24;102652.31;;;8.98;63.31
53960;BME280;39866;48.638;-2.020;2023-02-28T14:57:53;102651.53;;;9.13;63.32
53960;BME280;39866;48.638;-2.020;2023-02-28T15:02:53;102648.91;;;9.17;63.41
53960;BME280;39866;48.638;-2.020;2023-02-28T15:05:30;102649.88;;;9.27;64.44
53960;BME280;39866;48.638;-2.020;2023-02-28T15:08:14;102644.69;;;9.49;65.05
53960;BME280;39866;48.638;-2.020;2023-02-28T15:10:43;102651.84;;;9.62;65.34
53960;BME280;39866;48.638;-2.020;2023-02-28T15:13:13;102645.59;;;9.48;67.22
53960;BME280;39866;48.638;-2.020;2023-02-28T15:18:26;102647.19;;;9.26;69.02
53960;BME280;39866;48.638;-2.020;2023-02-28T15:20:57;102642.78;;;9.29;69.46
53960;BME280;39866;48.638;-2.020;2023-02-28T15:23:25;102642.16;;;9.68;69.05
53960;BME280;39866;48.638;-2.020;2023-02-28T15:25:51;102630.44;;;9.36;69.83
53960;BME280;39866;48.638;-2.020;2023-02-28T15:28:20;102644.66;;;9.41;70.29